sensor_id;sensor_type;location;lat;lon;timestamp;P1;durP1;ratioP1;P2;durP2;ratioP2
15712;SDS011;7957;51.608;6.916;2022-10-16T00:01:36;4.00;;;3.30;;
15712;SDS011;7957;51.608;6.916;2022-10-16T00:04:04;4.90;;;3.60;;
15712;SDS011;7957;51.608;6.916;2022-10-16T00:06:31;3.87;;;3.30;;
15712;SDS011;7957;51.608;6.916;2022-10-16T00:08:59;3.63;;;3.30;;
15712;SDS011;7957;51.608;6.916;2022-10-16T00:11:31;3.77;;;3.40;;
15712;SDS011;7957;51.608;6.916;2022-10-16T00:14:02;3.60;;;3.30;;
15712;SDS011;7957;51.608;6.916;2022-10-16T00:16:30;3.43;;;3.13;;
15712;SDS011;7957;51.608;6.916;2022-10-16T00:18:57;4.50;;;3.30;;
15712;SDS011;7957;51.608;6.916;2022-10-16T00:21:25;4.60;;;3.40;;
15712;SDS011;7957;51.608;6.916;2022-10-16T00:23:54;3.97;;;3.30;;
15712;SDS011;7957;51.608;6.916;2022-10-16T00:26:22;5.30;;;3.50;;
15712;SDS011;7957;51.608;6.916;2022-10-16T00:28:50;3.33;;;3.00;;
15712;SDS011;7957;51.608;6.916;2022-10-16T00:31:19;3.40;;;3.10;;
15712;SDS011;7957;51.608;6.916;2022-10-16T00:33:47;3.50;;;3.20;;
15712;SDS011;7957;51.608;6.916;2022-10-16T00:36:15;4.47;;;3.57;;
15712;SDS011;7957;51.608;6.916;2022-10-16T00:38:43;3.60;;;3.30;;
15712;SDS011;7957;51.608;6.916;2022-10-16T00:41:11;3.43;;;3.10;;
15712;SDS011;7957;51.608;6.916;2022-10-16T00:43:40;4.27;;;3.43;;
15712;SDS011;7957;51.608;6.916;2022-10-16T00:46:13;4.13;;;3.17;;
15712;SDS011;7957;51.608;6.916;2022-10-16T00:48:42;3.27;;;2.93;;
15712;SDS011;7957;51.608;6.916;2022-10-16T00:51:14;5.60;;;3.50;;
15712;SDS011;7957;51.608;6.916;2022-10-16T00:53:41;5.00;;;3.20;;
15712;SDS011;7957;51.608;6.916;2022-10-16T00:56:08;4.70;;;3.30;;
15712;SDS011;7957;51.608;6.916;2022-10-16T00:58:35;5.67;;;3.37;;
15712;SDS011;7957;51.608;6.916;2022-10-16T01:01:01;4.20;;;3.73;;
15712;SDS011;7957;51.608;6.916;2022-10-16T01:03:31;5.80;;;3.20;;
15712;SDS011;7957;51.608;6.916;2022-10-16T01:06:09;3.90;;;3.30;;
15712;SDS011;7957;51.608;6.916;2022-10-16T01:08:47;4.17;;;3.00;;
15712;SDS011;7957;51.608;6.916;2022-10-16T01:11:27;4.03;;;3.20;;
15712;SDS011;7957;51.608;6.916;2022-10-16T01:14:00;4.10;;;3.37;;
15712;SDS011;7957;51.608;6.916;2022-10-16T01:16:34;3.50;;;2.97;;
15712;SDS011;7957;51.608;6.916;2022-10-16T01:19:08;3.13;;;2.83;;
15712;SDS011;7957;51.608;6.916;2022-10-16T01:21:39;4.17;;;3.20;;
15712;SDS011;7957;51.608;6.916;2022-10-16T01:24:11;3.43;;;2.87;;
15712;SDS011;7957;51.608;6.916;2022-10-16T01:29:34;3.37;;;2.90;;
15712;SDS011;7957;51.608;6.916;2022-10-16T01:32:07;5.23;;;3.30;;
15712;SDS011;7957;51.608;6.916;2022-10-16T01:34:42;3.67;;;2.93;;
15712;SDS011;7957;51.608;6.916;2022-10-16T01:37:15;3.93;;;3.33;;
15712;SDS011;7957;51.608;6.916;2022-10-16T01:39:45;4.93;;;3.10;;
15712;SDS011;7957;51.608;6.916;2022-10-16T01:42:18;4.17;;;3.30;;
15712;SDS011;7957;51.608;6.916;2022-10-16T01:44:49;4.17;;;2.97;;
15712;SDS011;7957;51.608;6.916;2022-10-16T01:47:17;4.53;;;2.80;;
15712;SDS011;7957;51.608;6.916;2022-10-16T01:49:46;3.20;;;2.87;;
15712;SDS011;7957;51.608;6.916;2022-10-16T01:52:17;3.17;;;2.80;;
15712;SDS011;7957;51.608;6.916;2022-10-16T01:54:47;3.70;;;2.93;;
15712;SDS011;7957;51.608;6.916;2022-10-16T01:57:20;3.43;;;3.13;;
15712;SDS011;7957;51.608;6.916;2022-10-16T01:59:50;3.67;;;3.03;;
15712;SDS011;7957;51.608;6.916;2022-10-16T02:02:22;3.50;;;3.20;;
15712;SDS011;7957;51.608;6.916;2022-10-16T02:04:53;4.57;;;3.17;;
15712;SDS011;7957;51.608;6.916;2022-10-16T02:07:30;3.93;;;2.93;;
15712;SDS011;7957;51.608;6.916;2022-10-16T02:09:57;4.10;;;2.70;;
15712;SDS011;7957;51.608;6.916;2022-10-16T02:12:26;3.57;;;3.27;;
15712;SDS011;7957;51.608;6.916;2022-10-16T02:14:57;4.40;;;3.40;;
15712;SDS011;7957;51.608;6.916;2022-10-16T02:17:24;3.70;;;3.13;;
15712;SDS011;7957;51.608;6.916;2022-10-16T02:19:53;5.07;;;3.00;;
15712;SDS011;7957;51.608;6.916;2022-10-16T02:22:24;3.97;;;3.17;;
15712;SDS011;7957;51.608;6.916;2022-10-16T02:24:54;3.70;;;3.40;;
15712;SDS011;7957;51.608;6.916;2022-10-16T02:27:26;3.83;;;3.10;;
15712;SDS011;7957;51.608;6.916;2022-10-16T02:29:59;3.03;;;2.77;;
15712;SDS011;7957;51.608;6.916;2022-10-16T02:32:32;4.63;;;3.07;;
15712;SDS011;7957;51.608;6.916;2022-10-16T02:35:02;3.77;;;2.97;;
15712;SDS011;7957;51.608;6.916;2022-10-16T02:37:31;3.80;;;3.20;;
15712;SDS011;7957;51.608;6.916;2022-10-16T02:39:58;3.97;;;3.00;;
15712;SDS011;7957;51.608;6.916;2022-10-16T02:42:34;3.63;;;3.00;;
15712;SDS011;7957;51.608;6.916;2022-10-16T02:45:04;3.37;;;2.80;;
15712;SDS011;7957;51.608;6.916;2022-10-16T02:47:32;2.97;;;2.70;;
15712;SDS011;7957;51.608;6.916;2022-10-16T02:49:59;4.27;;;2.73;;
15712;SDS011;7957;51.608;6.916;2022-10-16T02:52:26;2.87;;;2.67;;
15712;SDS011;7957;51.608;6.916;2022-10-16T02:54:53;3.10;;;2.80;;
15712;SDS011;7957;51.608;6.916;2022-10-16T02:57:19;3.87;;;2.77;;
15712;SDS011;7957;51.608;6.916;2022-10-16T02:59:48;4.17;;;2.70;;
15712;SDS011;7957;51.608;6.916;2022-10-16T03:02:15;3.93;;;3.07;;
15712;SDS011;7957;51.608;6.916;2022-10-16T03:04:42;3.27;;;2.70;;
15712;SDS011;7957;51.608;6.916;2022-10-16T03:07:08;2.63;;;2.43;;
15712;SDS011;7957;51.608;6.916;2022-10-16T03:09:35;3.83;;;3.07;;
15712;SDS011;7957;51.608;6.916;2022-10-16T03:12:02;2.67;;;2.40;;
15712;SDS011;7957;51.608;6.916;2022-10-16T03:14:29;2.60;;;2.40;;
15712;SDS011;7957;51.608;6.916;2022-10-16T03:16:58;2.83;;;2.60;;
15712;SDS011;7957;51.608;6.916;2022-10-16T03:19:25;3.17;;;2.57;;
15712;SDS011;7957;51.608;6.916;2022-10-16T03:21:53;3.70;;;2.73;;
15712;SDS011;7957;51.608;6.916;2022-10-16T03:24:20;4.30;;;2.80;;
15712;SDS011;7957;51.608;6.916;2022-10-16T03:26:47;2.40;;;2.20;;
15712;SDS011;7957;51.608;6.916;2022-10-16T03:29:14;2.90;;;2.60;;
15712;SDS011;7957;51.608;6.916;2022-10-16T03:31:40;2.60;;;2.40;;
15712;SDS011;7957;51.608;6.916;2022-10-16T03:34:09;2.90;;;2.43;;
15712;SDS011;7957;51.608;6.916;2022-10-16T03:36:35;3.50;;;2.43;;
15712;SDS011;7957;51.608;6.916;2022-10-16T03:39:02;3.43;;;2.50;;
15712;SDS011;7957;51.608;6.916;2022-10-16T03:41:29;3.90;;;2.30;;
15712;SDS011;7957;51.608;6.916;2022-10-16T03:43:56;2.97;;;2.40;;
15712;SDS011;7957;51.608;6.916;2022-10-16T03:46:23;2.83;;;2.43;;
15712;SDS011;7957;51.608;6.916;2022-10-16T03:48:50;2.83;;;2.17;;
15712;SDS011;7957;51.608;6.916;2022-10-16T03:51:18;2.67;;;2.40;;
15712;SDS011;7957;51.608;6.916;2022-10-16T03:53:45;2.73;;;2.40;;
15712;SDS011;7957;51.608;6.916;2022-10-16T03:56:12;3.00;;;2.00;;
15712;SDS011;7957;51.608;6.916;2022-10-16T03:58:39;2.67;;;2.07;;
15712;SDS011;7957;51.608;6.916;2022-10-16T04:01:06;2.27;;;2.03;;
15712;SDS011;7957;51.608;6.916;2022-10-16T04:03:33;2.63;;;2.20;;
15712;SDS011;7957;51.608;6.916;2022-10-16T04:06:01;2.27;;;2.13;;
15712;SDS011;7957;51.608;6.916;2022-10-16T04:08:29;2.10;;;2.00;;
15712;SDS011;7957;51.608;6.916;2022-10-16T04:10:59;2.23;;;2.00;;
15712;SDS011;7957;51.608;6.916;2022-10-16T04:13:26;3.07;;;2.33;;
15712;SDS011;7957;51.608;6.916;2022-10-16T04:15:52;2.27;;;2.07;;
15712;SDS011;7957;51.608;6.916;2022-10-16T04:18:19;1.90;;;1.80;;
15712;SDS011;7957;51.608;6.916;2022-10-16T04:20:47;2.83;;;2.00;;
15712;SDS011;7957;51.608;6.916;2022-10-16T04:23:13;2.60;;;2.20;;
15712;SDS011;7957;51.608;6.916;2022-10-16T04:25:42;2.13;;;1.93;;
15712;SDS011;7957;51.608;6.916;2022-10-16T04:28:09;2.43;;;1.90;;
15712;SDS011;7957;51.608;6.916;2022-10-16T04:30:37;2.10;;;1.90;;
15712;SDS011;7957;51.608;6.916;2022-10-16T04:33:04;2.57;;;2.17;;
15712;SDS011;7957;51.608;6.916;2022-10-16T04:35:31;1.93;;;1.80;;
15712;SDS011;7957;51.608;6.916;2022-10-16T04:37:58;2.13;;;1.93;;
15712;SDS011;7957;51.608;6.916;2022-10-16T04:40:25;2.30;;;2.10;;
15712;SDS011;7957;51.608;6.916;2022-10-16T04:42:54;3.00;;;1.80;;
15712;SDS011;7957;51.608;6.916;2022-10-16T04:45:21;2.50;;;2.10;;
15712;SDS011;7957;51.608;6.916;2022-10-16T04:47:47;2.13;;;1.93;;
15712;SDS011;7957;51.608;6.916;2022-10-16T04:50:14;2.27;;;1.97;;
15712;SDS011;7957;51.608;6.916;2022-10-16T04:52:41;1.87;;;1.73;;
15712;SDS011;7957;51.608;6.916;2022-10-16T04:55:08;1.83;;;1.60;;
15712;SDS011;7957;51.608;6.916;2022-10-16T04:57:35;2.17;;;1.67;;
15712;SDS011;7957;51.608;6.916;2022-10-16T05:00:04;1.97;;;1.80;;
15712;SDS011;7957;51.608;6.916;2022-10-16T05:02:33;1.93;;;1.67;;
15712;SDS011;7957;51.608;6.916;2022-10-16T05:05:00;2.30;;;1.83;;
15712;SDS011;7957;51.608;6.916;2022-10-16T05:07:27;2.57;;;1.83;;
15712;SDS011;7957;51.608;6.916;2022-10-16T05:09:53;2.27;;;1.70;;
15712;SDS011;7957;51.608;6.916;2022-10-16T05:12:20;1.87;;;1.60;;
15712;SDS011;7957;51.608;6.916;2022-10-16T05:14:47;1.80;;;1.67;;
15712;SDS011;7957;51.608;6.916;2022-10-16T05:17:15;2.23;;;1.70;;
15712;SDS011;7957;51.608;6.916;2022-10-16T05:19:42;2.90;;;1.83;;
15712;SDS011;7957;51.608;6.916;2022-10-16T05:22:09;1.93;;;1.80;;
15712;SDS011;7957;51.608;6.916;2022-10-16T05:24:36;1.93;;;1.73;;
15712;SDS011;7957;51.608;6.916;2022-10-16T05:27:03;1.80;;;1.70;;
15712;SDS011;7957;51.608;6.916;2022-10-16T05:29:30;1.97;;;1.70;;
15712;SDS011;7957;51.608;6.916;2022-10-16T05:31:57;1.70;;;1.60;;
15712;SDS011;7957;51.608;6.916;2022-10-16T05:34:25;1.83;;;1.73;;
15712;SDS011;7957;51.608;6.916;2022-10-16T05:36:52;2.50;;;2.00;;
15712;SDS011;7957;51.608;6.916;2022-10-16T05:39:19;2.60;;;1.50;;
15712;SDS011;7957;51.608;6.916;2022-10-16T05:41:46;1.83;;;1.73;;
15712;SDS011;7957;51.608;6.916;2022-10-16T05:44:13;2.63;;;1.80;;
15712;SDS011;7957;51.608;6.916;2022-10-16T05:46:40;2.67;;;1.70;;
15712;SDS011;7957;51.608;6.916;2022-10-16T05:49:06;2.73;;;1.73;;
15712;SDS011;7957;51.608;6.916;2022-10-16T05:51:35;1.97;;;1.80;;
15712;SDS011;7957;51.608;6.916;2022-10-16T05:54:02;1.83;;;1.50;;
15712;SDS011;7957;51.608;6.916;2022-10-16T05:56:29;1.80;;;1.70;;
15712;SDS011;7957;51.608;6.916;2022-10-16T05:58:55;3.47;;;1.70;;
15712;SDS011;7957;51.608;6.916;2022-10-16T06:01:22;3.50;;;1.90;;
15712;SDS011;7957;51.608;6.916;2022-10-16T06:03:50;1.97;;;1.80;;
15712;SDS011;7957;51.608;6.916;2022-10-16T06:06:18;1.67;;;1.57;;
15712;SDS011;7957;51.608;6.916;2022-10-16T06:08:48;2.27;;;1.73;;
15712;SDS011;7957;51.608;6.916;2022-10-16T06:11:16;3.67;;;1.80;;
15712;SDS011;7957;51.608;6.916;2022-10-16T06:13:43;1.83;;;1.73;;
15712;SDS011;7957;51.608;6.916;2022-10-16T06:16:11;2.10;;;1.70;;
15712;SDS011;7957;51.608;6.916;2022-10-16T06:18:39;1.93;;;1.60;;
15712;SDS011;7957;51.608;6.916;2022-10-16T06:21:09;1.70;;;1.60;;
15712;SDS011;7957;51.608;6.916;2022-10-16T06:23:38;3.77;;;2.00;;
15712;SDS011;7957;51.608;6.916;2022-10-16T06:26:07;2.17;;;1.80;;
15712;SDS011;7957;51.608;6.916;2022-10-16T06:28:34;2.03;;;1.70;;
15712;SDS011;7957;51.608;6.916;2022-10-16T06:31:02;1.77;;;1.67;;
15712;SDS011;7957;51.608;6.916;2022-10-16T06:33:30;2.43;;;1.70;;
15712;SDS011;7957;51.608;6.916;2022-10-16T06:36:01;2.10;;;1.73;;
15712;SDS011;7957;51.608;6.916;2022-10-16T06:38:29;2.57;;;1.70;;
15712;SDS011;7957;51.608;6.916;2022-10-16T06:40:56;1.97;;;1.87;;
15712;SDS011;7957;51.608;6.916;2022-10-16T06:43:25;1.83;;;1.67;;
15712;SDS011;7957;51.608;6.916;2022-10-16T06:45:52;2.80;;;1.70;;
15712;SDS011;7957;51.608;6.916;2022-10-16T06:48:19;1.83;;;1.70;;
15712;SDS011;7957;51.608;6.916;2022-10-16T06:50:54;1.80;;;1.70;;
15712;SDS011;7957;51.608;6.916;2022-10-16T06:53:22;1.93;;;1.70;;
15712;SDS011;7957;51.608;6.916;2022-10-16T06:55:49;6.07;;;1.90;;
15712;SDS011;7957;51.608;6.916;2022-10-16T06:58:17;2.10;;;1.77;;
15712;SDS011;7957;51.608;6.916;2022-10-16T07:00:45;1.97;;;1.73;;
15712;SDS011;7957;51.608;6.916;2022-10-16T07:03:13;1.87;;;1.77;;
15712;SDS011;7957;51.608;6.916;2022-10-16T07:05:41;1.70;;;1.60;;
15712;SDS011;7957;51.608;6.916;2022-10-16T07:08:08;2.53;;;1.70;;
15712;SDS011;7957;51.608;6.916;2022-10-16T07:10:35;2.90;;;1.80;;
15712;SDS011;7957;51.608;6.916;2022-10-16T07:13:02;2.17;;;1.80;;
15712;SDS011;7957;51.608;6.916;2022-10-16T07:15:29;3.10;;;2.10;;
15712;SDS011;7957;51.608;6.916;2022-10-16T07:17:57;2.37;;;1.80;;
15712;SDS011;7957;51.608;6.916;2022-10-16T07:20:25;2.67;;;1.90;;
15712;SDS011;7957;51.608;6.916;2022-10-16T07:22:52;1.67;;;1.57;;
15712;SDS011;7957;51.608;6.916;2022-10-16T07:25:19;3.30;;;1.80;;
15712;SDS011;7957;51.608;6.916;2022-10-16T07:27:45;2.20;;;1.97;;
15712;SDS011;7957;51.608;6.916;2022-10-16T07:30:12;2.70;;;1.80;;
15712;SDS011;7957;51.608;6.916;2022-10-16T07:32:39;1.87;;;1.77;;
15712;SDS011;7957;51.608;6.916;2022-10-16T07:35:08;2.60;;;1.90;;
15712;SDS011;7957;51.608;6.916;2022-10-16T07:37:35;2.20;;;1.70;;
15712;SDS011;7957;51.608;6.916;2022-10-16T07:40:02;2.87;;;1.90;;
15712;SDS011;7957;51.608;6.916;2022-10-16T07:42:29;2.57;;;2.20;;
15712;SDS011;7957;51.608;6.916;2022-10-16T07:44:56;2.27;;;1.73;;
15712;SDS011;7957;51.608;6.916;2022-10-16T07:47:23;1.97;;;1.77;;
15712;SDS011;7957;51.608;6.916;2022-10-16T07:49:50;3.50;;;2.00;;
15712;SDS011;7957;51.608;6.916;2022-10-16T07:52:18;3.10;;;2.33;;
15712;SDS011;7957;51.608;6.916;2022-10-16T07:54:45;2.83;;;2.27;;
15712;SDS011;7957;51.608;6.916;2022-10-16T07:57:12;3.40;;;2.20;;
15712;SDS011;7957;51.608;6.916;2022-10-16T07:59:44;2.53;;;2.23;;
15712;SDS011;7957;51.608;6.916;2022-10-16T08:02:10;3.90;;;2.43;;
15712;SDS011;7957;51.608;6.916;2022-10-16T08:04:37;3.60;;;2.53;;
15712;SDS011;7957;51.608;6.916;2022-10-16T08:07:06;2.47;;;2.20;;
15712;SDS011;7957;51.608;6.916;2022-10-16T08:09:35;2.73;;;2.53;;
15712;SDS011;7957;51.608;6.916;2022-10-16T08:12:02;2.67;;;2.10;;
15712;SDS011;7957;51.608;6.916;2022-10-16T08:14:29;3.10;;;2.80;;
15712;SDS011;7957;51.608;6.916;2022-10-16T08:16:56;4.30;;;2.63;;
15712;SDS011;7957;51.608;6.916;2022-10-16T08:19:23;4.10;;;2.87;;
15712;SDS011;7957;51.608;6.916;2022-10-16T08:21:50;3.63;;;2.73;;
15712;SDS011;7957;51.608;6.916;2022-10-16T08:24:16;3.50;;;2.57;;
15712;SDS011;7957;51.608;6.916;2022-10-16T08:26:45;3.70;;;2.53;;
15712;SDS011;7957;51.608;6.916;2022-10-16T08:29:13;4.27;;;2.70;;
15712;SDS011;7957;51.608;6.916;2022-10-16T08:31:39;3.43;;;3.03;;
15712;SDS011;7957;51.608;6.916;2022-10-16T08:34:06;3.37;;;2.70;;
15712;SDS011;7957;51.608;6.916;2022-10-16T08:36:33;3.30;;;2.70;;
15712;SDS011;7957;51.608;6.916;2022-10-16T08:39:00;4.17;;;2.87;;
15712;SDS011;7957;51.608;6.916;2022-10-16T08:41:35;5.03;;;3.13;;
15712;SDS011;7957;51.608;6.916;2022-10-16T08:44:28;4.17;;;2.80;;
15712;SDS011;7957;51.608;6.916;2022-10-16T08:47:06;5.73;;;2.90;;
15712;SDS011;7957;51.608;6.916;2022-10-16T08:49:39;6.20;;;3.20;;
15712;SDS011;7957;51.608;6.916;2022-10-16T08:52:10;4.17;;;2.90;;
15712;SDS011;7957;51.608;6.916;2022-10-16T08:54:40;4.13;;;2.73;;
15712;SDS011;7957;51.608;6.916;2022-10-16T08:57:09;4.30;;;2.83;;
15712;SDS011;7957;51.608;6.916;2022-10-16T08:59:41;4.50;;;2.80;;
15712;SDS011;7957;51.608;6.916;2022-10-16T09:02:16;3.40;;;2.50;;
15712;SDS011;7957;51.608;6.916;2022-10-16T09:04:55;5.77;;;2.90;;
15712;SDS011;7957;51.608;6.916;2022-10-16T09:08:02;5.37;;;2.50;;
15712;SDS011;7957;51.608;6.916;2022-10-16T09:10:38;4.17;;;2.70;;
15712;SDS011;7957;51.608;6.916;2022-10-16T09:13:16;4.43;;;2.43;;
15712;SDS011;7957;51.608;6.916;2022-10-16T09:15:49;4.47;;;2.87;;
15712;SDS011;7957;51.608;6.916;2022-10-16T09:18:26;4.33;;;2.60;;
15712;SDS011;7957;51.608;6.916;2022-10-16T09:21:01;4.67;;;2.70;;
15712;SDS011;7957;51.608;6.916;2022-10-16T09:23:36;3.37;;;2.33;;
15712;SDS011;7957;51.608;6.916;2022-10-16T09:26:03;4.63;;;2.43;;
15712;SDS011;7957;51.608;6.916;2022-10-16T09:28:31;4.50;;;2.77;;
15712;SDS011;7957;51.608;6.916;2022-10-16T09:31:01;5.93;;;2.53;;
15712;SDS011;7957;51.608;6.916;2022-10-16T09:33:28;4.97;;;2.40;;
15712;SDS011;7957;51.608;6.916;2022-10-16T09:35:59;4.07;;;2.37;;
15712;SDS011;7957;51.608;6.916;2022-10-16T09:38:29;5.07;;;2.20;;
15712;SDS011;7957;51.608;6.916;2022-10-16T09:40:57;4.90;;;2.20;;
15712;SDS011;7957;51.608;6.916;2022-10-16T09:43:26;2.60;;;2.13;;
15712;SDS011;7957;51.608;6.916;2022-10-16T09:45:58;4.27;;;2.20;;
15712;SDS011;7957;51.608;6.916;2022-10-16T09:48:28;6.17;;;2.20;;
15712;SDS011;7957;51.608;6.916;2022-10-16T09:51:00;4.23;;;2.30;;
15712;SDS011;7957;51.608;6.916;2022-10-16T09:53:41;4.50;;;2.00;;
15712;SDS011;7957;51.608;6.916;2022-10-16T09:56:10;6.73;;;2.20;;
15712;SDS011;7957;51.608;6.916;2022-10-16T09:58:42;3.13;;;1.93;;
15712;SDS011;7957;51.608;6.916;2022-10-16T10:01:14;5.27;;;2.10;;
15712;SDS011;7957;51.608;6.916;2022-10-16T10:03:42;2.30;;;2.10;;
15712;SDS011;7957;51.608;6.916;2022-10-16T10:06:17;4.70;;;1.83;;
15712;SDS011;7957;51.608;6.916;2022-10-16T10:08:57;2.23;;;1.70;;
15712;SDS011;7957;51.608;6.916;2022-10-16T10:11:40;2.97;;;2.00;;
15712;SDS011;7957;51.608;6.916;2022-10-16T10:14:14;3.37;;;2.00;;
15712;SDS011;7957;51.608;6.916;2022-10-16T10:16:48;2.93;;;1.80;;
15712;SDS011;7957;51.608;6.916;2022-10-16T10:19:16;3.13;;;1.97;;
15712;SDS011;7957;51.608;6.916;2022-10-16T10:21:44;4.07;;;1.80;;
15712;SDS011;7957;51.608;6.916;2022-10-16T10:24:12;5.95;;;2.45;;
15712;SDS011;7957;51.608;6.916;2022-10-16T10:26:41;13.50;;;2.43;;
15712;SDS011;7957;51.608;6.916;2022-10-16T10:29:16;4.40;;;2.00;;
15712;SDS011;7957;51.608;6.916;2022-10-16T10:31:54;4.40;;;2.00;;
15712;SDS011;7957;51.608;6.916;2022-10-16T10:34:35;5.27;;;2.00;;
15712;SDS011;7957;51.608;6.916;2022-10-16T10:37:22;7.13;;;2.13;;
15712;SDS011;7957;51.608;6.916;2022-10-16T10:39:59;3.67;;;2.10;;
15712;SDS011;7957;51.608;6.916;2022-10-16T10:42:34;4.93;;;2.10;;
15712;SDS011;7957;51.608;6.916;2022-10-16T10:45:21;4.53;;;1.90;;
15712;SDS011;7957;51.608;6.916;2022-10-16T10:48:01;3.60;;;1.97;;
15712;SDS011;7957;51.608;6.916;2022-10-16T10:50:38;3.87;;;1.70;;
15712;SDS011;7957;51.608;6.916;2022-10-16T10:53:22;3.50;;;1.80;;
15712;SDS011;7957;51.608;6.916;2022-10-16T10:56:00;4.77;;;1.50;;
15712;SDS011;7957;51.608;6.916;2022-10-16T10:58:55;1.90;;;1.37;;
15712;SDS011;7957;51.608;6.916;2022-10-16T11:01:47;4.80;;;1.80;;
15712;SDS011;7957;51.608;6.916;2022-10-16T11:04:36;3.03;;;1.77;;
15712;SDS011;7957;51.608;6.916;2022-10-16T11:07:17;3.40;;;1.40;;
15712;SDS011;7957;51.608;6.916;2022-10-16T11:09:47;1.97;;;1.20;;
15712;SDS011;7957;51.608;6.916;2022-10-16T11:12:19;2.40;;;1.43;;
15712;SDS011;7957;51.608;6.916;2022-10-16T11:14:49;3.20;;;1.60;;
15712;SDS011;7957;51.608;6.916;2022-10-16T11:17:23;3.23;;;1.67;;
15712;SDS011;7957;51.608;6.916;2022-10-16T11:19:56;3.83;;;1.47;;
15712;SDS011;7957;51.608;6.916;2022-10-16T11:22:29;4.00;;;1.53;;
15712;SDS011;7957;51.608;6.916;2022-10-16T11:25:00;3.50;;;1.67;;
15712;SDS011;7957;51.608;6.916;2022-10-16T11:27:36;2.73;;;1.63;;
15712;SDS011;7957;51.608;6.916;2022-10-16T11:30:11;4.53;;;1.43;;
15712;SDS011;7957;51.608;6.916;2022-10-16T11:32:45;3.60;;;1.40;;
15712;SDS011;7957;51.608;6.916;2022-10-16T11:35:23;3.53;;;1.50;;
15712;SDS011;7957;51.608;6.916;2022-10-16T11:37:58;4.07;;;1.40;;
15712;SDS011;7957;51.608;6.916;2022-10-16T11:40:28;5.60;;;1.87;;
15712;SDS011;7957;51.608;6.916;2022-10-16T11:43:00;4.33;;;1.60;;
15712;SDS011;7957;51.608;6.916;2022-10-16T11:45:33;3.53;;;1.57;;
15712;SDS011;7957;51.608;6.916;2022-10-16T11:48:08;2.77;;;1.43;;
15712;SDS011;7957;51.608;6.916;2022-10-16T11:50:49;2.67;;;1.70;;
15712;SDS011;7957;51.608;6.916;2022-10-16T11:53:21;3.37;;;1.40;;
15712;SDS011;7957;51.608;6.916;2022-10-16T11:55:57;2.73;;;1.40;;
15712;SDS011;7957;51.608;6.916;2022-10-16T11:58:26;3.97;;;1.57;;
15712;SDS011;7957;51.608;6.916;2022-10-16T12:01:00;5.13;;;1.90;;
15712;SDS011;7957;51.608;6.916;2022-10-16T12:03:38;4.53;;;1.50;;
15712;SDS011;7957;51.608;6.916;2022-10-16T12:06:17;4.87;;;1.50;;
15712;SDS011;7957;51.608;6.916;2022-10-16T12:08:52;2.43;;;1.30;;
15712;SDS011;7957;51.608;6.916;2022-10-16T12:11:31;3.23;;;1.47;;
15712;SDS011;7957;51.608;6.916;2022-10-16T12:14:04;4.60;;;1.60;;
15712;SDS011;7957;51.608;6.916;2022-10-16T12:16:52;6.37;;;1.50;;
15712;SDS011;7957;51.608;6.916;2022-10-16T12:19:21;3.33;;;1.40;;
15712;SDS011;7957;51.608;6.916;2022-10-16T12:21:51;3.67;;;1.50;;
15712;SDS011;7957;51.608;6.916;2022-10-16T12:24:26;2.63;;;1.50;;
15712;SDS011;7957;51.608;6.916;2022-10-16T12:26:57;2.80;;;1.50;;
15712;SDS011;7957;51.608;6.916;2022-10-16T12:29:28;4.67;;;1.80;;
15712;SDS011;7957;51.608;6.916;2022-10-16T12:31:59;2.67;;;1.20;;
15712;SDS011;7957;51.608;6.916;2022-10-16T12:34:27;4.80;;;1.40;;
15712;SDS011;7957;51.608;6.916;2022-10-16T12:37:08;3.70;;;1.30;;
15712;SDS011;7957;51.608;6.916;2022-10-16T12:39:39;2.57;;;1.53;;
15712;SDS011;7957;51.608;6.916;2022-10-16T12:42:19;3.07;;;1.30;;
15712;SDS011;7957;51.608;6.916;2022-10-16T12:44:48;3.60;;;1.33;;
15712;SDS011;7957;51.608;6.916;2022-10-16T12:47:19;2.90;;;1.20;;
15712;SDS011;7957;51.608;6.916;2022-10-16T12:49:49;3.27;;;1.50;;
15712;SDS011;7957;51.608;6.916;2022-10-16T12:52:26;3.50;;;1.30;;
15712;SDS011;7957;51.608;6.916;2022-10-16T12:54:55;4.80;;;1.70;;
15712;SDS011;7957;51.608;6.916;2022-10-16T12:57:29;4.17;;;1.63;;
15712;SDS011;7957;51.608;6.916;2022-10-16T13:00:08;3.50;;;1.40;;
15712;SDS011;7957;51.608;6.916;2022-10-16T13:02:52;3.60;;;1.50;;
15712;SDS011;7957;51.608;6.916;2022-10-16T13:05:31;4.53;;;1.50;;
15712;SDS011;7957;51.608;6.916;2022-10-16T13:08:11;4.43;;;1.57;;
15712;SDS011;7957;51.608;6.916;2022-10-16T13:10:53;2.60;;;1.43;;
15712;SDS011;7957;51.608;6.916;2022-10-16T13:13:35;3.93;;;1.57;;
15712;SDS011;7957;51.608;6.916;2022-10-16T13:16:29;5.23;;;1.87;;
15712;SDS011;7957;51.608;6.916;2022-10-16T13:19:10;3.50;;;1.60;;
15712;SDS011;7957;51.608;6.916;2022-10-16T13:21:47;2.77;;;1.73;;
15712;SDS011;7957;51.608;6.916;2022-10-16T13:24:25;2.20;;;1.60;;
15712;SDS011;7957;51.608;6.916;2022-10-16T13:27:10;2.63;;;1.60;;
15712;SDS011;7957;51.608;6.916;2022-10-16T13:29:41;3.37;;;1.70;;
15712;SDS011;7957;51.608;6.916;2022-10-16T13:32:09;4.60;;;1.90;;
15712;SDS011;7957;51.608;6.916;2022-10-16T13:34:43;4.13;;;2.00;;
15712;SDS011;7957;51.608;6.916;2022-10-16T13:37:16;2.83;;;1.83;;
15712;SDS011;7957;51.608;6.916;2022-10-16T13:39:46;4.07;;;2.13;;
15712;SDS011;7957;51.608;6.916;2022-10-16T13:42:16;3.60;;;2.10;;
15712;SDS011;7957;51.608;6.916;2022-10-16T13:44:49;3.97;;;1.70;;
15712;SDS011;7957;51.608;6.916;2022-10-16T13:47:18;4.30;;;2.13;;
15712;SDS011;7957;51.608;6.916;2022-10-16T13:49:46;4.03;;;2.20;;
15712;SDS011;7957;51.608;6.916;2022-10-16T13:52:24;5.57;;;2.23;;
15712;SDS011;7957;51.608;6.916;2022-10-16T13:54:53;3.80;;;2.10;;
15712;SDS011;7957;51.608;6.916;2022-10-16T13:57:22;3.83;;;2.03;;
15712;SDS011;7957;51.608;6.916;2022-10-16T13:59:50;4.50;;;1.90;;
15712;SDS011;7957;51.608;6.916;2022-10-16T14:02:19;2.57;;;1.87;;
15712;SDS011;7957;51.608;6.916;2022-10-16T14:04:48;3.97;;;2.30;;
15712;SDS011;7957;51.608;6.916;2022-10-16T14:07:18;3.70;;;2.30;;
15712;SDS011;7957;51.608;6.916;2022-10-16T14:09:50;3.97;;;1.90;;
15712;SDS011;7957;51.608;6.916;2022-10-16T14:12:19;3.83;;;2.00;;
15712;SDS011;7957;51.608;6.916;2022-10-16T14:14:48;5.30;;;2.03;;
15712;SDS011;7957;51.608;6.916;2022-10-16T14:17:19;4.47;;;2.07;;
15712;SDS011;7957;51.608;6.916;2022-10-16T14:19:49;4.37;;;2.13;;
15712;SDS011;7957;51.608;6.916;2022-10-16T14:22:22;5.30;;;2.30;;
15712;SDS011;7957;51.608;6.916;2022-10-16T14:24:57;3.23;;;1.90;;
15712;SDS011;7957;51.608;6.916;2022-10-16T14:27:26;4.73;;;1.90;;
15712;SDS011;7957;51.608;6.916;2022-10-16T14:30:15;3.17;;;1.90;;
15712;SDS011;7957;51.608;6.916;2022-10-16T14:32:52;3.27;;;1.80;;
15712;SDS011;7957;51.608;6.916;2022-10-16T14:38:06;3.73;;;2.20;;
15712;SDS011;7957;51.608;6.916;2022-10-16T14:40:47;4.77;;;2.10;;
15712;SDS011;7957;51.608;6.916;2022-10-16T14:43:18;3.37;;;2.10;;
15712;SDS011;7957;51.608;6.916;2022-10-16T14:45:50;2.47;;;1.80;;
15712;SDS011;7957;51.608;6.916;2022-10-16T14:48:20;3.83;;;2.00;;
15712;SDS011;7957;51.608;6.916;2022-10-16T14:50:47;3.00;;;1.83;;
15712;SDS011;7957;51.608;6.916;2022-10-16T14:53:13;5.03;;;2.10;;
15712;SDS011;7957;51.608;6.916;2022-10-16T14:55:41;3.63;;;1.90;;
15712;SDS011;7957;51.608;6.916;2022-10-16T14:58:11;3.20;;;2.00;;
15712;SDS011;7957;51.608;6.916;2022-10-16T15:00:41;3.27;;;1.80;;
15712;SDS011;7957;51.608;6.916;2022-10-16T15:03:08;3.57;;;1.90;;
15712;SDS011;7957;51.608;6.916;2022-10-16T15:05:35;3.57;;;1.90;;
15712;SDS011;7957;51.608;6.916;2022-10-16T15:08:02;6.53;;;1.90;;
15712;SDS011;7957;51.608;6.916;2022-10-16T15:10:30;4.87;;;2.27;;
15712;SDS011;7957;51.608;6.916;2022-10-16T15:12:59;2.73;;;1.80;;
15712;SDS011;7957;51.608;6.916;2022-10-16T15:15:33;4.20;;;2.00;;
15712;SDS011;7957;51.608;6.916;2022-10-16T15:18:01;4.93;;;1.67;;
15712;SDS011;7957;51.608;6.916;2022-10-16T15:20:29;2.87;;;1.90;;
15712;SDS011;7957;51.608;6.916;2022-10-16T15:22:58;2.43;;;1.80;;
15712;SDS011;7957;51.608;6.916;2022-10-16T15:25:27;6.43;;;2.00;;
15712;SDS011;7957;51.608;6.916;2022-10-16T15:28:01;3.73;;;1.73;;